McIntosh, Alabama
Current Conditions -  °F | °C
As of 7:56 PM on Sunday 23 Nov 2014 (Local Time) from KMOB Reporting Station
Overcast Overcast  
Wind Chill: 66°   Ceiling: 600
Heat Index: 66°   Visibility: 9mi
Dew Point: 66°   Wind: 16mph
Humidity: 100%   Direction: 200°SSW
Pressure: 29.73"   Gusts: 23mph
Location:  31.27°N, 88.03°W
Report Text: KMOB 240156Z 20014G20KT 9SM OVC006 19/19 A2973 RMK AO2 SLP064 T01890189 $
Loading
Personal Weather Stations






























Interactive Weather Map New forecast layout! Learn more

10-Day Weather Forecast

Advertisements
Track Severe Weather on mobile